sensor_id;sensor_type;location;lat;lon;timestamp;pressure;altitude;pressure_sealevel;temperature;humidity
44027;BME280;29696;55.698;37.460;2023-05-27T00:01:55;99232.97;;;15.56;72.73
44027;BME280;29696;55.698;37.460;2023-05-27T00:04:22;99227.16;;;15.52;72.86
44027;BME280;29696;55.698;37.460;2023-05-27T00:06:48;99226.50;;;15.50;72.99
44027;BME280;29696;55.698;37.460;2023-05-27T00:09:14;99218.03;;;15.47;72.92
44027;BME280;29696;55.698;37.460;2023-05-27T00:11:41;99223.38;;;15.47;73.07
44027;BME280;29696;55.698;37.460;2023-05-27T00:14:07;99211.84;;;15.46;73.02
44027;BME280;29696;55.698;37.460;2023-05-27T00:16:33;99204.06;;;15.45;73.22
44027;BME280;29696;55.698;37.460;2023-05-27T00:19:03;99202.22;;;15.45;73.08
44027;BME280;29696;55.698;37.460;2023-05-27T00:21:29;99207.38;;;15.47;73.04
44027;BME280;29696;55.698;37.460;2023-05-27T00:23:56;99200.56;;;15.44;73.45
44027;BME280;29696;55.698;37.460;2023-05-27T00:26:25;99197.56;;;15.47;73.02
44027;BME280;29696;55.698;37.460;2023-05-27T00:28:53;99199.03;;;15.50;73.09
44027;BME280;29696;55.698;37.460;2023-05-27T00:31:19;99199.50;;;15.53;73.20
44027;BME280;29696;55.698;37.460;2023-05-27T00:33:46;99199.63;;;15.60;73.08
44027;BME280;29696;55.698;37.460;2023-05-27T00:36:12;99201.78;;;15.65;72.94
44027;BME280;29696;55.698;37.460;2023-05-27T00:38:39;99201.78;;;15.65;72.80
44027;BME280;29696;55.698;37.460;2023-05-27T00:41:05;99205.75;;;15.69;72.93
44027;BME280;29696;55.698;37.460;2023-05-27T00:43:33;99218.25;;;15.68;73.06
44027;BME280;29696;55.698;37.460;2023-05-27T00:46:00;99223.59;;;15.68;73.23
44027;BME280;29696;55.698;37.460;2023-05-27T00:48:26;99222.91;;;15.66;73.36
44027;BME280;29696;55.698;37.460;2023-05-27T00:50:53;99223.44;;;15.62;73.51
44027;BME280;29696;55.698;37.460;2023-05-27T00:53:20;99215.13;;;15.57;73.86
44027;BME280;29696;55.698;37.460;2023-05-27T00:55:47;99234.97;;;15.54;73.99
44027;BME280;29696;55.698;37.460;2023-05-27T00:58:13;99224.34;;;15.46;74.45
44027;BME280;29696;55.698;37.460;2023-05-27T01:00:40;99230.03;;;15.43;75.22
44027;BME280;29696;55.698;37.460;2023-05-27T01:03:07;99229.75;;;15.38;75.50
44027;BME280;29696;55.698;37.460;2023-05-27T01:05:34;99233.38;;;15.37;75.54
44027;BME280;29696;55.698;37.460;2023-05-27T01:08:50;99241.00;;;15.48;76.29
44027;BME280;29696;55.698;37.460;2023-05-27T01:11:22;99237.88;;;15.36;76.41
44027;BME280;29696;55.698;37.460;2023-05-27T01:13:52;99234.91;;;15.31;76.91
44027;BME280;29696;55.698;37.460;2023-05-27T01:16:23;99237.56;;;15.31;77.40
44027;BME280;29696;55.698;37.460;2023-05-27T01:18:52;99236.09;;;15.28;77.66
44027;BME280;29696;55.698;37.460;2023-05-27T01:21:21;99232.09;;;15.33;77.82
44027;BME280;29696;55.698;37.460;2023-05-27T01:23:50;99231.63;;;15.29;77.89
44027;BME280;29696;55.698;37.460;2023-05-27T01:26:17;99238.44;;;15.32;77.84
44027;BME280;29696;55.698;37.460;2023-05-27T01:28:44;99228.59;;;15.32;78.30
44027;BME280;29696;55.698;37.460;2023-05-27T01:31:24;99235.69;;;15.40;78.35
44027;BME280;29696;55.698;37.460;2023-05-27T01:34:06;99236.47;;;15.48;78.31
44027;BME280;29696;55.698;37.460;2023-05-27T01:36:41;99241.00;;;15.48;78.32
44027;BME280;29696;55.698;37.460;2023-05-27T01:39:10;99240.88;;;15.41;78.37
44027;BME280;29696;55.698;37.460;2023-05-27T01:41:40;99234.53;;;15.42;78.42
44027;BME280;29696;55.698;37.460;2023-05-27T01:44:10;99238.34;;;15.40;78.73
44027;BME280;29696;55.698;37.460;2023-05-27T01:46:37;99234.53;;;15.42;78.78
44027;BME280;29696;55.698;37.460;2023-05-27T01:49:03;99236.38;;;15.42;78.52
44027;BME280;29696;55.698;37.460;2023-05-27T01:51:30;99234.53;;;15.42;78.11
44027;BME280;29696;55.698;37.460;2023-05-27T01:53:57;99238.47;;;15.46;78.20
44027;BME280;29696;55.698;37.460;2023-05-27T01:56:23;99235.81;;;15.46;78.08
44027;BME280;29696;55.698;37.460;2023-05-27T01:58:49;99239.00;;;15.50;78.27
44027;BME280;29696;55.698;37.460;2023-05-27T02:01:17;99227.31;;;15.51;77.69
44027;BME280;29696;55.698;37.460;2023-05-27T02:03:43;99238.41;;;15.63;77.47
44027;BME280;29696;55.698;37.460;2023-05-27T02:06:09;99235.38;;;15.74;76.56
44027;BME280;29696;55.698;37.460;2023-05-27T02:08:37;99244.13;;;15.83;75.95
44027;BME280;29696;55.698;37.460;2023-05-27T02:11:04;99244.13;;;15.83;75.30
44027;BME280;29696;55.698;37.460;2023-05-27T02:13:31;99248.91;;;15.87;75.19
44027;BME280;29696;55.698;37.460;2023-05-27T02:15:58;99252.41;;;15.88;74.63
44027;BME280;29696;55.698;37.460;2023-05-27T02:18:25;99251.41;;;15.89;74.04
44027;BME280;29696;55.698;37.460;2023-05-27T02:20:51;99252.06;;;15.91;73.54
44027;BME280;29696;55.698;37.460;2023-05-27T02:23:19;99245.84;;;15.98;73.21
44027;BME280;29696;55.698;37.460;2023-05-27T02:25:45;99251.94;;;16.07;72.79
44027;BME280;29696;55.698;37.460;2023-05-27T02:28:11;99258.44;;;16.28;72.63
44027;BME280;29696;55.698;37.460;2023-05-27T02:30:39;99253.16;;;16.42;70.86
44027;BME280;29696;55.698;37.460;2023-05-27T02:33:05;99254.91;;;16.65;69.95
44027;BME280;29696;55.698;37.460;2023-05-27T02:35:32;99257.25;;;16.98;68.09
44027;BME280;29696;55.698;37.460;2023-05-27T02:37:59;99257.16;;;17.21;66.67
44027;BME280;29696;55.698;37.460;2023-05-27T02:40:29;99259.91;;;17.64;65.09
44027;BME280;29696;55.698;37.460;2023-05-27T02:42:56;99267.31;;;17.98;63.76
44027;BME280;29696;55.698;37.460;2023-05-27T02:45:23;99276.50;;;18.38;61.45
44027;BME280;29696;55.698;37.460;2023-05-27T02:47:51;99276.81;;;18.78;59.64
44027;BME280;29696;55.698;37.460;2023-05-27T02:50:18;99279.53;;;19.13;57.21
44027;BME280;29696;55.698;37.460;2023-05-27T02:52:44;99282.75;;;19.43;55.78
44027;BME280;29696;55.698;37.460;2023-05-27T02:55:11;99286.59;;;19.75;55.28
44027;BME280;29696;55.698;37.460;2023-05-27T02:57:37;99291.00;;;20.03;54.10
44027;BME280;29696;55.698;37.460;2023-05-27T03:00:04;99296.41;;;20.36;53.04
44027;BME280;29696;55.698;37.460;2023-05-27T03:02:34;99283.81;;;20.70;52.00
44027;BME280;29696;55.698;37.460;2023-05-27T03:05:01;99291.84;;;20.96;50.18
44027;BME280;29696;55.698;37.460;2023-05-27T03:07:31;99291.59;;;21.11;47.28
44027;BME280;29696;55.698;37.460;2023-05-27T03:09:58;99289.53;;;21.13;45.82
44027;BME280;29696;55.698;37.460;2023-05-27T03:12:26;99289.56;;;21.07;45.06
44027;BME280;29696;55.698;37.460;2023-05-27T03:14:52;99307.09;;;21.16;45.06
44027;BME280;29696;55.698;37.460;2023-05-27T03:17:19;99297.50;;;21.47;44.52
44027;BME280;29696;55.698;37.460;2023-05-27T03:19:47;99302.84;;;21.98;43.22
44027;BME280;29696;55.698;37.460;2023-05-27T03:22:15;99296.66;;;22.29;41.93
44027;BME280;29696;55.698;37.460;2023-05-27T03:24:41;99299.88;;;22.95;41.94
44027;BME280;29696;55.698;37.460;2023-05-27T03:27:08;99300.75;;;23.44;40.46
44027;BME280;29696;55.698;37.460;2023-05-27T03:29:37;99308.84;;;23.62;39.01
44027;BME280;29696;55.698;37.460;2023-05-27T03:32:04;99310.09;;;23.97;37.74
44027;BME280;29696;55.698;37.460;2023-05-27T03:34:33;99304.44;;;24.40;36.64
44027;BME280;29696;55.698;37.460;2023-05-27T03:36:59;99301.09;;;24.92;35.87
44027;BME280;29696;55.698;37.460;2023-05-27T03:39:42;99297.75;;;25.37;34.78
44027;BME280;29696;55.698;37.460;2023-05-27T03:42:10;99312.59;;;25.74;34.46
44027;BME280;29696;55.698;37.460;2023-05-27T03:44:37;99306.75;;;26.23;33.94
44027;BME280;29696;55.698;37.460;2023-05-27T03:47:04;99314.91;;;26.74;33.45
44027;BME280;29696;55.698;37.460;2023-05-27T03:49:31;99311.53;;;27.17;32.59
44027;BME280;29696;55.698;37.460;2023-05-27T03:51:57;99323.84;;;27.47;30.43
44027;BME280;29696;55.698;37.460;2023-05-27T03:54:24;99318.06;;;27.82;31.09
44027;BME280;29696;55.698;37.460;2023-05-27T03:56:52;99321.69;;;28.20;29.68
44027;BME280;29696;55.698;37.460;2023-05-27T03:59:18;99331.34;;;28.38;29.87
44027;BME280;29696;55.698;37.460;2023-05-27T04:01:44;99325.44;;;28.73;28.48
44027;BME280;29696;55.698;37.460;2023-05-27T04:04:11;99324.13;;;28.81;27.73
44027;BME280;29696;55.698;37.460;2023-05-27T04:06:37;99336.88;;;29.12;27.79
44027;BME280;29696;55.698;37.460;2023-05-27T04:09:04;99329.13;;;29.42;26.88
44027;BME280;29696;55.698;37.460;2023-05-27T04:11:31;99336.25;;;29.58;26.40
44027;BME280;29696;55.698;37.460;2023-05-27T04:13:57;99347.44;;;29.56;25.66
44027;BME280;29696;55.698;37.460;2023-05-27T04:16:24;99346.72;;;29.76;26.64
44027;BME280;29696;55.698;37.460;2023-05-27T04:18:51;99346.31;;;30.20;25.88
44027;BME280;29696;55.698;37.460;2023-05-27T04:21:18;99349.06;;;30.41;25.11
44027;BME280;29696;55.698;37.460;2023-05-27T04:23:45;99341.97;;;30.60;25.01
44027;BME280;29696;55.698;37.460;2023-05-27T04:26:12;99352.06;;;30.75;23.86
44027;BME280;29696;55.698;37.460;2023-05-27T04:28:42;99352.34;;;30.68;24.07
44027;BME280;29696;55.698;37.460;2023-05-27T04:31:12;99360.22;;;31.11;23.66
44027;BME280;29696;55.698;37.460;2023-05-27T04:33:43;99353.09;;;31.41;23.20
44027;BME280;29696;55.698;37.460;2023-05-27T04:36:12;99347.00;;;31.59;23.17
44027;BME280;29696;55.698;37.460;2023-05-27T04:38:54;99350.56;;;32.19;23.21
44027;BME280;29696;55.698;37.460;2023-05-27T04:41:20;99349.69;;;32.63;22.91
44027;BME280;29696;55.698;37.460;2023-05-27T04:44:12;99349.38;;;32.99;22.92
44027;BME280;29696;55.698;37.460;2023-05-27T04:46:44;99337.13;;;33.21;22.52
44027;BME280;29696;55.698;37.460;2023-05-27T04:49:11;99342.16;;;33.61;22.08
44027;BME280;29696;55.698;37.460;2023-05-27T04:51:38;99349.88;;;33.78;21.39
44027;BME280;29696;55.698;37.460;2023-05-27T04:54:06;99346.66;;;34.14;20.71
44027;BME280;29696;55.698;37.460;2023-05-27T04:56:35;99353.81;;;34.67;20.33
44027;BME280;29696;55.698;37.460;2023-05-27T04:59:02;99360.34;;;34.71;19.33
44027;BME280;29696;55.698;37.460;2023-05-27T05:01:32;99347.72;;;34.70;18.54
44027;BME280;29696;55.698;37.460;2023-05-27T05:04:22;99358.03;;;35.25;18.72
44027;BME280;29696;55.698;37.460;2023-05-27T05:07:02;99354.72;;;35.09;18.60
44027;BME280;29696;55.698;37.460;2023-05-27T05:09:31;99361.88;;;35.37;18.48
44027;BME280;29696;55.698;37.460;2023-05-27T05:12:04;99367.06;;;35.80;18.08
44027;BME280;29696;55.698;37.460;2023-05-27T05:14:37;99365.28;;;36.26;18.43
44027;BME280;29696;55.698;37.460;2023-05-27T05:17:04;99370.34;;;36.32;17.67
44027;BME280;29696;55.698;37.460;2023-05-27T05:19:30;99364.03;;;36.32;18.11
44027;BME280;29696;55.698;37.460;2023-05-27T05:21:57;99360.50;;;36.40;17.48
44027;BME280;29696;55.698;37.460;2023-05-27T05:24:23;99365.13;;;36.98;17.50
44027;BME280;29696;55.698;37.460;2023-05-27T05:26:51;99358.13;;;37.23;17.07
44027;BME280;29696;55.698;37.460;2023-05-27T05:29:17;99353.63;;;37.67;16.77
44027;BME280;29696;55.698;37.460;2023-05-27T05:31:43;99360.97;;;37.98;15.86
44027;BME280;29696;55.698;37.460;2023-05-27T05:34:12;99358.56;;;37.97;16.04
44027;BME280;29696;55.698;37.460;2023-05-27T05:36:39;99361.84;;;38.42;15.65
44027;BME280;29696;55.698;37.460;2023-05-27T05:39:09;99369.41;;;38.89;15.08
44027;BME280;29696;55.698;37.460;2023-05-27T05:41:40;99359.09;;;39.07;14.67
44027;BME280;29696;55.698;37.460;2023-05-27T05:44:06;99370.50;;;39.52;14.54
44027;BME280;29696;55.698;37.460;2023-05-27T05:46:33;99381.16;;;39.92;14.72
44027;BME280;29696;55.698;37.460;2023-05-27T05:49:00;99375.41;;;39.46;13.48
44027;BME280;29696;55.698;37.460;2023-05-27T05:51:43;99387.31;;;41.51;12.92
44027;BME280;29696;55.698;37.460;2023-05-27T05:54:09;99378.31;;;39.80;14.31
44027;BME280;29696;55.698;37.460;2023-05-27T05:56:42;99376.84;;;39.82;14.42
44027;BME280;29696;55.698;37.460;2023-05-27T05:59:08;99381.78;;;39.98;13.75
44027;BME280;29696;55.698;37.460;2023-05-27T06:01:35;99380.53;;;40.37;13.78
44027;BME280;29696;55.698;37.460;2023-05-27T06:04:02;99391.53;;;40.25;13.26
44027;BME280;29696;55.698;37.460;2023-05-27T06:06:44;99390.72;;;40.66;12.79
44027;BME280;29696;55.698;37.460;2023-05-27T06:09:24;99385.88;;;40.75;12.74
44027;BME280;29696;55.698;37.460;2023-05-27T06:11:54;99382.88;;;40.26;12.37
44027;BME280;29696;55.698;37.460;2023-05-27T06:14:21;99379.22;;;40.34;12.73
44027;BME280;29696;55.698;37.460;2023-05-27T06:16:50;99388.69;;;40.88;12.56
44027;BME280;29696;55.698;37.460;2023-05-27T06:19:16;99397.06;;;41.12;12.02
44027;BME280;29696;55.698;37.460;2023-05-27T06:21:43;99387.22;;;41.02;12.50
44027;BME280;29696;55.698;37.460;2023-05-27T06:24:48;99395.47;;;41.11;12.37
44027;BME280;29696;55.698;37.460;2023-05-27T06:27:25;99396.41;;;41.27;11.89
44027;BME280;29696;55.698;37.460;2023-05-27T06:29:51;99392.41;;;41.49;12.37
44027;BME280;29696;55.698;37.460;2023-05-27T06:32:31;99393.19;;;40.92;11.51
44027;BME280;29696;55.698;37.460;2023-05-27T06:34:58;99394.78;;;40.81;11.74
44027;BME280;29696;55.698;37.460;2023-05-27T06:37:24;99403.72;;;40.66;11.92
44027;BME280;29696;55.698;37.460;2023-05-27T06:39:51;99396.31;;;40.91;11.73
44027;BME280;29696;55.698;37.460;2023-05-27T06:42:18;99397.13;;;40.91;12.36
44027;BME280;29696;55.698;37.460;2023-05-27T06:45:07;99410.16;;;41.24;12.09
44027;BME280;29696;55.698;37.460;2023-05-27T06:47:35;99397.13;;;41.61;11.58
44027;BME280;29696;55.698;37.460;2023-05-27T06:50:02;99398.84;;;41.78;11.68
44027;BME280;29696;55.698;37.460;2023-05-27T06:52:30;99387.53;;;41.83;11.02
44027;BME280;29696;55.698;37.460;2023-05-27T06:55:25;99385.78;;;41.79;11.24
44027;BME280;29696;55.698;37.460;2023-05-27T06:58:10;99390.06;;;41.27;11.82
44027;BME280;29696;55.698;37.460;2023-05-27T07:01:03;99375.84;;;41.28;12.11
44027;BME280;29696;55.698;37.460;2023-05-27T07:03:33;99381.84;;;41.43;12.12
44027;BME280;29696;55.698;37.460;2023-05-27T07:06:00;99381.84;;;41.43;11.87
44027;BME280;29696;55.698;37.460;2023-05-27T07:08:30;99383.44;;;41.19;11.31
44027;BME280;29696;55.698;37.460;2023-05-27T07:11:19;99389.38;;;41.55;11.72
44027;BME280;29696;55.698;37.460;2023-05-27T07:13:47;99394.22;;;42.07;12.14
44027;BME280;29696;55.698;37.460;2023-05-27T07:16:16;99393.00;;;42.32;11.37
44027;BME280;29696;55.698;37.460;2023-05-27T07:18:43;99403.91;;;42.53;10.79
44027;BME280;29696;55.698;37.460;2023-05-27T07:21:11;99400.72;;;42.39;10.50
44027;BME280;29696;55.698;37.460;2023-05-27T07:23:37;99396.94;;;42.59;10.31
44027;BME280;29696;55.698;37.460;2023-05-27T07:26:22;99416.81;;;42.21;11.30
44027;BME280;29696;55.698;37.460;2023-05-27T07:28:49;99407.94;;;42.56;10.30
44027;BME280;29696;55.698;37.460;2023-05-27T07:31:28;99406.41;;;42.43;10.52
44027;BME280;29696;55.698;37.460;2023-05-27T07:33:59;99398.19;;;42.62;11.04
44027;BME280;29696;55.698;37.460;2023-05-27T07:36:25;99389.19;;;42.37;10.95
44027;BME280;29696;55.698;37.460;2023-05-27T07:38:52;99384.88;;;42.39;10.21
44027;BME280;29696;55.698;37.460;2023-05-27T07:41:18;99389.16;;;42.65;9.95
44027;BME280;29696;55.698;37.460;2023-05-27T07:43:45;99389.38;;;42.44;9.70
44027;BME280;29696;55.698;37.460;2023-05-27T07:46:12;99385.25;;;42.26;9.78
44027;BME280;29696;55.698;37.460;2023-05-27T07:48:40;99387.00;;;42.30;9.51
44027;BME280;29696;55.698;37.460;2023-05-27T07:51:07;99394.66;;;42.09;8.66
44027;BME280;29696;55.698;37.460;2023-05-27T07:53:35;99398.56;;;42.20;8.42
44027;BME280;29696;55.698;37.460;2023-05-27T07:56:02;99388.75;;;42.10;8.50
44027;BME280;29696;55.698;37.460;2023-05-27T07:58:29;99397.56;;;41.76;9.16
44027;BME280;29696;55.698;37.460;2023-05-27T08:01:05;99398.38;;;41.27;9.13
44027;BME280;29696;55.698;37.460;2023-05-27T08:03:31;99394.00;;;41.63;9.95
44027;BME280;29696;55.698;37.460;2023-05-27T08:06:17;99396.00;;;41.04;9.85
44027;BME280;29696;55.698;37.460;2023-05-27T08:09:03;99395.59;;;41.15;10.06
44027;BME280;29696;55.698;37.460;2023-05-27T08:11:53;99393.44;;;40.87;11.61
44027;BME280;29696;55.698;37.460;2023-05-27T08:14:38;99394.53;;;40.53;11.59
44027;BME280;29696;55.698;37.460;2023-05-27T08:17:33;99386.09;;;39.86;11.15
44027;BME280;29696;55.698;37.460;2023-05-27T08:20:18;99382.75;;;39.25;12.64
44027;BME280;29696;55.698;37.460;2023-05-27T08:23:08;99386.16;;;38.31;13.17
44027;BME280;29696;55.698;37.460;2023-05-27T08:25:53;99393.41;;;37.44;14.46
44027;BME280;29696;55.698;37.460;2023-05-27T08:28:40;99387.47;;;37.19;14.28
44027;BME280;29696;55.698;37.460;2023-05-27T08:31:30;99381.59;;;36.45;14.94
44027;BME280;29696;55.698;37.460;2023-05-27T08:33:59;99368.28;;;35.47;15.62
44027;BME280;29696;55.698;37.460;2023-05-27T08:36:26;99372.38;;;34.56;16.82
44027;BME280;29696;55.698;37.460;2023-05-27T08:38:53;99380.56;;;33.56;17.03
44027;BME280;29696;55.698;37.460;2023-05-27T08:41:23;99377.16;;;32.48;17.58
44027;BME280;29696;55.698;37.460;2023-05-27T08:43:50;99373.59;;;31.18;18.23
44027;BME280;29696;55.698;37.460;2023-05-27T08:46:18;99378.13;;;30.05;19.88
44027;BME280;29696;55.698;37.460;2023-05-27T08:48:45;99374.25;;;28.95;21.92
44027;BME280;29696;55.698;37.460;2023-05-27T08:51:13;99383.13;;;28.26;23.53
44027;BME280;29696;55.698;37.460;2023-05-27T08:53:42;99376.88;;;27.76;23.22
44027;BME280;29696;55.698;37.460;2023-05-27T08:56:11;99379.78;;;27.14;24.12
44027;BME280;29696;55.698;37.460;2023-05-27T08:58:43;99372.59;;;26.40;25.60
44027;BME280;29696;55.698;37.460;2023-05-27T09:01:10;99374.66;;;26.05;26.62
44027;BME280;29696;55.698;37.460;2023-05-27T09:03:39;99374.81;;;25.98;27.72
44027;BME280;29696;55.698;37.460;2023-05-27T09:06:06;99379.91;;;25.83;27.60
44027;BME280;29696;55.698;37.460;2023-05-27T09:08:33;99374.19;;;25.56;26.64
44027;BME280;29696;55.698;37.460;2023-05-27T09:10:59;99378.78;;;25.08;27.92
44027;BME280;29696;55.698;37.460;2023-05-27T09:13:30;99390.53;;;24.90;29.08
44027;BME280;29696;55.698;37.460;2023-05-27T09:15:58;99378.59;;;24.56;27.57
44027;BME280;29696;55.698;37.460;2023-05-27T09:18:27;99377.97;;;24.42;27.56
44027;BME280;29696;55.698;37.460;2023-05-27T09:20:55;99385.16;;;24.18;28.23
44027;BME280;29696;55.698;37.460;2023-05-27T09:23:22;99386.47;;;23.97;28.59
44027;BME280;29696;55.698;37.460;2023-05-27T09:25:49;99375.97;;;23.89;29.96
44027;BME280;29696;55.698;37.460;2023-05-27T09:28:22;99391.66;;;24.10;31.55
44027;BME280;29696;55.698;37.460;2023-05-27T09:30:59;99390.50;;;24.06;27.95
44027;BME280;29696;55.698;37.460;2023-05-27T09:33:33;99388.84;;;23.50;28.65
44027;BME280;29696;55.698;37.460;2023-05-27T09:36:00;99405.63;;;23.09;28.37
44027;BME280;29696;55.698;37.460;2023-05-27T09:38:31;99390.09;;;22.79;28.23
44027;BME280;29696;55.698;37.460;2023-05-27T09:40:59;99397.78;;;22.50;29.43
44027;BME280;29696;55.698;37.460;2023-05-27T09:43:26;99399.84;;;22.48;30.51
44027;BME280;29696;55.698;37.460;2023-05-27T09:46:02;99390.28;;;22.52;30.25
44027;BME280;29696;55.698;37.460;2023-05-27T09:48:30;99394.59;;;22.60;31.93
44027;BME280;29696;55.698;37.460;2023-05-27T09:50:59;99406.44;;;22.59;29.86
44027;BME280;29696;55.698;37.460;2023-05-27T09:53:27;99400.03;;;22.53;30.25
44027;BME280;29696;55.698;37.460;2023-05-27T09:55:54;99394.47;;;22.48;29.83
44027;BME280;29696;55.698;37.460;2023-05-27T09:58:22;99400.22;;;22.59;29.95
44027;BME280;29696;55.698;37.460;2023-05-27T10:00:49;99408.94;;;22.54;30.23
44027;BME280;29696;55.698;37.460;2023-05-27T10:03:17;99399.03;;;22.48;30.44
44027;BME280;29696;55.698;37.460;2023-05-27T10:05:49;99408.59;;;22.44;29.45
44027;BME280;29696;55.698;37.460;2023-05-27T10:08:16;99395.00;;;22.32;30.42
44027;BME280;29696;55.698;37.460;2023-05-27T10:10:45;99397.59;;;22.45;31.01
44027;BME280;29696;55.698;37.460;2023-05-27T10:13:16;99400.88;;;22.54;30.01
44027;BME280;29696;55.698;37.460;2023-05-27T10:15:47;99401.72;;;22.48;30.76
44027;BME280;29696;55.698;37.460;2023-05-27T10:18:22;99412.59;;;22.66;30.71
44027;BME280;29696;55.698;37.460;2023-05-27T10:20:49;99407.13;;;22.48;29.59
44027;BME280;29696;55.698;37.460;2023-05-27T10:23:19;99414.63;;;22.39;29.84
44027;BME280;29696;55.698;37.460;2023-05-27T10:25:52;99419.69;;;22.16;30.20
44027;BME280;29696;55.698;37.460;2023-05-27T10:28:30;99402.09;;;22.13;30.58
44027;BME280;29696;55.698;37.460;2023-05-27T10:31:08;99407.31;;;22.08;29.79
44027;BME280;29696;55.698;37.460;2023-05-27T10:33:37;99415.00;;;21.98;30.45
44027;BME280;29696;55.698;37.460;2023-05-27T10:36:08;99413.72;;;22.07;30.17
44027;BME280;29696;55.698;37.460;2023-05-27T10:38:36;99400.94;;;22.02;30.93
44027;BME280;29696;55.698;37.460;2023-05-27T10:41:05;99419.91;;;22.14;31.21
44027;BME280;29696;55.698;37.460;2023-05-27T10:43:33;99409.81;;;22.03;30.13
44027;BME280;29696;55.698;37.460;2023-05-27T10:46:12;99403.78;;;22.07;29.74
44027;BME280;29696;55.698;37.460;2023-05-27T10:48:39;99405.94;;;21.85;31.33
44027;BME280;29696;55.698;37.460;2023-05-27T10:51:06;99405.91;;;21.92;31.26
44027;BME280;29696;55.698;37.460;2023-05-27T10:53:35;99411.97;;;21.87;30.55
44027;BME280;29696;55.698;37.460;2023-05-27T10:56:02;99410.56;;;21.65;30.22
44027;BME280;29696;55.698;37.460;2023-05-27T10:58:29;99405.25;;;21.45;30.29
44027;BME280;29696;55.698;37.460;2023-05-27T11:00:56;99398.81;;;21.33;31.15
44027;BME280;29696;55.698;37.460;2023-05-27T11:03:27;99403.19;;;21.40;31.57
44027;BME280;29696;55.698;37.460;2023-05-27T11:06:05;99410.38;;;21.53;30.87
44027;BME280;29696;55.698;37.460;2023-05-27T11:08:33;99399.06;;;21.38;31.13
44027;BME280;29696;55.698;37.460;2023-05-27T11:11:07;99396.97;;;21.47;31.53
44027;BME280;29696;55.698;37.460;2023-05-27T11:13:41;99393.88;;;21.50;31.28
44027;BME280;29696;55.698;37.460;2023-05-27T11:16:09;99400.63;;;21.65;32.13
44027;BME280;29696;55.698;37.460;2023-05-27T11:18:43;99396.47;;;21.76;30.90
44027;BME280;29696;55.698;37.460;2023-05-27T11:21:10;99401.06;;;22.14;30.27
44027;BME280;29696;55.698;37.460;2023-05-27T11:23:42;99399.69;;;21.98;30.72
44027;BME280;29696;55.698;37.460;2023-05-27T11:26:11;99400.34;;;21.94;31.17
44027;BME280;29696;55.698;37.460;2023-05-27T11:28:49;99394.53;;;21.97;30.54
44027;BME280;29696;55.698;37.460;2023-05-27T11:31:17;99389.38;;;21.88;30.67
44027;BME280;29696;55.698;37.460;2023-05-27T11:33:48;99388.97;;;21.92;30.73
44027;BME280;29696;55.698;37.460;2023-05-27T11:36:16;99391.25;;;21.88;30.98
44027;BME280;29696;55.698;37.460;2023-05-27T11:38:59;99394.72;;;21.95;30.93
44027;BME280;29696;55.698;37.460;2023-05-27T11:41:28;99392.50;;;21.85;31.22
44027;BME280;29696;55.698;37.460;2023-05-27T11:44:15;99383.31;;;22.06;30.17
44027;BME280;29696;55.698;37.460;2023-05-27T11:46:43;99375.38;;;21.73;30.24
44027;BME280;29696;55.698;37.460;2023-05-27T11:49:12;99382.63;;;21.73;30.61
44027;BME280;29696;55.698;37.460;2023-05-27T11:51:44;99372.06;;;21.78;30.13
44027;BME280;29696;55.698;37.460;2023-05-27T11:54:25;99391.88;;;21.83;30.04
44027;BME280;29696;55.698;37.460;2023-05-27T11:56:53;99391.56;;;21.60;28.94
44027;BME280;29696;55.698;37.460;2023-05-27T11:59:22;99377.09;;;21.48;30.21
44027;BME280;29696;55.698;37.460;2023-05-27T12:01:49;99378.94;;;21.54;30.19
44027;BME280;29696;55.698;37.460;2023-05-27T12:04:15;99363.84;;;21.59;29.45
44027;BME280;29696;55.698;37.460;2023-05-27T12:06:42;99373.75;;;21.65;28.79
44027;BME280;29696;55.698;37.460;2023-05-27T12:09:10;99385.09;;;21.74;29.45
44027;BME280;29696;55.698;37.460;2023-05-27T12:11:37;99386.31;;;21.85;30.18
44027;BME280;29696;55.698;37.460;2023-05-27T12:14:05;99386.50;;;21.90;28.51
44027;BME280;29696;55.698;37.460;2023-05-27T12:16:31;99384.88;;;21.82;29.08
44027;BME280;29696;55.698;37.460;2023-05-27T12:18:58;99391.50;;;21.80;28.97
44027;BME280;29696;55.698;37.460;2023-05-27T12:21:25;99390.03;;;21.77;28.00
44027;BME280;29696;55.698;37.460;2023-05-27T12:23:52;99379.75;;;21.68;26.45
44027;BME280;29696;55.698;37.460;2023-05-27T12:26:18;99397.16;;;21.58;27.34
44027;BME280;29696;55.698;37.460;2023-05-27T12:28:45;99392.63;;;21.52;27.71
44027;BME280;29696;55.698;37.460;2023-05-27T12:31:11;99389.91;;;21.59;28.37
44027;BME280;29696;55.698;37.460;2023-05-27T12:33:38;99395.09;;;21.60;28.20
44027;BME280;29696;55.698;37.460;2023-05-27T12:36:04;99399.00;;;21.64;28.21
44027;BME280;29696;55.698;37.460;2023-05-27T12:38:34;99397.38;;;21.57;27.40
44027;BME280;29696;55.698;37.460;2023-05-27T12:41:00;99388.28;;;21.45;27.46
44027;BME280;29696;55.698;37.460;2023-05-27T12:43:27;99384.38;;;21.40;27.24
44027;BME280;29696;55.698;37.460;2023-05-27T12:45:53;99389.34;;;21.43;28.54
44027;BME280;29696;55.698;37.460;2023-05-27T12:48:20;99393.69;;;21.38;27.72
44027;BME280;29696;55.698;37.460;2023-05-27T12:50:47;99384.78;;;21.37;27.32
44027;BME280;29696;55.698;37.460;2023-05-27T12:53:14;99369.25;;;21.33;28.07
44027;BME280;29696;55.698;37.460;2023-05-27T12:55:42;99380.63;;;21.41;28.45
44027;BME280;29696;55.698;37.460;2023-05-27T12:58:11;99379.59;;;21.49;29.19
44027;BME280;29696;55.698;37.460;2023-05-27T13:00:38;99376.88;;;21.56;29.78
44027;BME280;29696;55.698;37.460;2023-05-27T13:03:04;99386.19;;;21.53;27.86
44027;BME280;29696;55.698;37.460;2023-05-27T13:05:30;99379.78;;;21.48;28.80